Time;durP1;ratioP1;P1;durP2;ratioP2;P2;SDS_P1;SDS_P2;PMS_P1;PMS_P2;Temp;Humidity;BMP_temperature;BMP_pressure;BME280_temperature;BME280_humidity;BME280_pressure;Samples;Min_cycle;Max_cycle;Signal;HPM_P1;HPM_P2
2023/03/23 00:01:01;;;;;;;60.83;27.23;;;;;;;;;;6260167;28;20037;-60
2023/03/23 00:04:01;;;;;;;44.40;22.15;;;;;;;;;;6263442;28;20053;-61
2023/03/23 00:07:03;;;;;;;56.90;24.90;;;;;;;;;;6257354;28;20538;-62
2023/03/23 00:10:04;;;;;;;46.17;22.00;;;;;;;;;;6260354;28;20045;-59
2023/03/23 00:13:06;;;;;;;43.97;21.52;;;;;;;;;;6256809;28;20888;-60
2023/03/23 00:16:16;;;;;;;40.83;22.00;;;;;;;;;;6260066;28;20076;-61
2023/03/23 00:19:21;;;;;;;41.05;21.50;;;;;;;;;;6256456;28;20187;-60
2023/03/23 00:22:24;;;;;;;36.97;20.42;;;;;;;;;;6264359;28;20048;-61
2023/03/23 00:25:25;;;;;;;39.88;21.42;;;;;;;;;;6259112;28;20136;-60
2023/03/23 00:28:27;;;;;;;48.38;23.02;;;;;;;;;;6258105;28;20466;-61
2023/03/23 00:31:31;;;;;;;45.73;23.07;;;;;;;;;;6258491;28;20041;-62
2023/03/23 00:34:33;;;;;;;40.25;21.55;;;;;;;;;;6259556;28;20056;-61
2023/03/23 00:37:35;;;;;;;41.85;21.88;;;;;;;;;;6256135;28;20045;-61
2023/03/23 00:40:35;;;;;;;39.27;20.77;;;;;;;;;;6257034;28;20464;-61
2023/03/23 00:43:36;;;;;;;34.38;17.25;;;;;;;;;;6258702;28;20068;-60
2023/03/23 00:46:44;;;;;;;37.20;18.00;;;;;;;;;;6260796;28;20045;-61
2023/03/23 00:49:45;;;;;;;35.72;19.38;;;;;;;;;;6258558;28;20485;-61
2023/03/23 00:52:45;;;;;;;32.55;18.95;;;;;;;;;;6259045;28;20052;-60
2023/03/23 00:55:47;;;;;;;30.58;16.83;;;;;;;;;;6259756;28;20128;-62
2023/03/23 00:58:48;;;;;;;34.13;19.65;;;;;;;;;;6259433;28;20071;-61
2023/03/23 01:01:50;;;;;;;33.50;19.02;;;;;;;;;;6263920;28;20072;-60
2023/03/23 01:04:52;;;;;;;30.17;16.30;;;;;;;;;;6261698;28;20052;-60
2023/03/23 01:07:53;;;;;;;;;;;;;;;;;;6259484;28;20045;-62
2023/03/23 01:11:05;;;;;;;29.10;16.55;;;;;;;;;;6255365;28;19920;-60
2023/03/23 01:14:06;;;;;;;29.33;14.23;;;;;;;;;;6259509;28;20073;-60
2023/03/23 01:17:06;;;;;;;25.63;13.70;;;;;;;;;;6259757;28;20417;-61
2023/03/23 01:20:07;;;;;;;29.60;15.13;;;;;;;;;;6254828;28;20044;-62
2023/03/23 01:23:08;;;;;;;25.13;13.13;;;;;;;;;;6265462;28;20523;-61
2023/03/23 01:26:15;;;;;;;23.13;12.77;;;;;;;;;;6262176;28;20061;-61
2023/03/23 01:29:16;;;;;;;25.48;13.43;;;;;;;;;;6258921;28;20423;-60
2023/03/23 01:32:16;;;;;;;20.48;13.10;;;;;;;;;;6259557;28;20047;-62
2023/03/23 01:35:17;;;;;;;24.05;13.10;;;;;;;;;;6260740;28;20053;-60
2023/03/23 01:38:18;;;;;;;24.17;13.63;;;;;;;;;;6264530;28;20765;-61
2023/03/23 01:41:20;;;;;;;24.77;13.93;;;;;;;;;;6259845;28;20045;-61
2023/03/23 01:44:21;;;;;;;25.50;14.57;;;;;;;;;;6264674;28;20041;-62
2023/03/23 01:47:23;;;;;;;30.60;18.73;;;;;;;;;;6263243;28;20052;-61
2023/03/23 01:50:26;;;;;;;32.58;18.38;;;;;;;;;;6260071;28;20055;-61
2023/03/23 01:53:37;;;;;;;30.92;17.92;;;;;;;;;;6262154;28;20130;-61
2023/03/23 01:56:47;;;;;;;28.92;17.77;;;;;;;;;;6264586;28;20242;-61
2023/03/23 01:59:51;;;;;;;33.63;20.63;;;;;;;;;;6264311;28;20040;-61
2023/03/23 02:02:53;;;;;;;36.50;26.75;;;;;;;;;;6264334;28;20067;-60
2023/03/23 02:05:58;;;;;;;37.63;21.03;;;;;;;;;;6267283;28;20106;-62
2023/03/23 02:08:59;;;;;;;37.40;22.33;;;;;;;;;;6262310;28;20053;-60
2023/03/23 02:12:00;;;;;;;38.63;24.13;;;;;;;;;;6266168;28;20049;-60
2023/03/23 02:15:02;;;;;;;39.58;24.15;;;;;;;;;;6261421;28;20052;-61
2023/03/23 02:18:16;;;;;;;35.33;21.52;;;;;;;;;;6267317;28;20135;-60
2023/03/23 02:21:41;;;;;;;38.40;21.67;;;;;;;;;;6265600;28;20053;-62
2023/03/23 02:25:00;;;;;;;34.28;21.05;;;;;;;;;;6261417;28;20419;-61
2023/03/23 02:28:16;;;;;;;33.15;19.48;;;;;;;;;;6268076;28;20045;-61
2023/03/23 02:31:45;;;;;;;32.60;18.08;;;;;;;;;;6264449;28;20122;-61
2023/03/23 02:34:53;;;;;;;40.35;18.27;;;;;;;;;;6265519;28;20052;-60
2023/03/23 02:38:02;;;;;;;32.95;18.08;;;;;;;;;;6261593;28;20450;-61
2023/03/23 02:41:03;;;;;;;31.77;17.55;;;;;;;;;;6264889;28;20121;-62
2023/03/23 02:44:05;;;;;;;30.92;17.95;;;;;;;;;;6264009;28;20048;-62
2023/03/23 02:47:16;;;;;;;34.17;20.70;;;;;;;;;;6267421;28;20053;-60
2023/03/23 02:50:19;;;;;;;32.40;20.10;;;;;;;;;;6262648;28;20052;-60
2023/03/23 02:53:22;;;;;;;29.33;18.55;;;;;;;;;;6261431;28;20074;-61
2023/03/23 02:56:25;;;;;;;29.08;17.67;;;;;;;;;;6263231;28;20382;-60
2023/03/23 02:59:26;;;;;;;27.45;16.00;;;;;;;;;;6259850;28;20053;-61
2023/03/23 03:02:29;;;;;;;31.70;16.40;;;;;;;;;;6265000;28;20705;-62
2023/03/23 03:05:51;;;;;;;27.17;14.88;;;;;;;;;;6266416;28;20060;-61
2023/03/23 03:08:54;;;;;;;23.40;13.25;;;;;;;;;;6261489;28;20152;-62
2023/03/23 03:12:01;;;;;;;23.73;14.05;;;;;;;;;;6261899;28;20400;-61
2023/03/23 03:15:13;;;;;;;30.88;16.75;;;;;;;;;;6265020;28;20057;-61
2023/03/23 03:18:21;;;;;;;23.70;14.15;;;;;;;;;;6259134;28;20770;-62
2023/03/23 03:21:25;;;;;;;24.92;14.00;;;;;;;;;;6266024;28;20139;-61
2023/03/23 03:24:29;;;;;;;24.52;15.02;;;;;;;;;;6265707;28;20049;-61
2023/03/23 03:27:32;;;;;;;25.35;15.48;;;;;;;;;;6262502;28;20401;-61
2023/03/23 03:30:36;;;;;;;31.52;17.85;;;;;;;;;;6267626;28;20408;-61
2023/03/23 03:33:37;;;;;;;32.25;18.98;;;;;;;;;;6261857;28;20083;-61
2023/03/23 03:36:40;;;;;;;32.85;20.13;;;;;;;;;;6264272;28;20510;-60
2023/03/23 03:39:41;;;;;;;35.83;20.67;;;;;;;;;;6266586;28;20052;-61
2023/03/23 03:42:43;;;;;;;46.42;22.80;;;;;;;;;;6263701;28;20123;-60
2023/03/23 03:45:44;;;;;;;37.42;22.10;;;;;;;;;;6266518;28;20140;-62
2023/03/23 03:48:45;;;;;;;41.35;22.10;;;;;;;;;;6266656;28;20419;-61
2023/03/23 03:51:46;;;;;;;36.58;19.48;;;;;;;;;;6265477;28;20110;-61
2023/03/23 03:54:47;;;;;;;32.38;18.20;;;;;;;;;;6264927;28;20052;-61
2023/03/23 03:57:48;;;;;;;35.00;19.80;;;;;;;;;;6265221;28;20045;-60
2023/03/23 04:00:49;;;;;;;39.20;23.70;;;;;;;;;;6264171;28;20056;-61
2023/03/23 04:03:50;;;;;;;47.33;32.10;;;;;;;;;;6262280;28;20049;-61
2023/03/23 04:06:51;;;;;;;40.17;22.73;;;;;;;;;;6266606;28;20411;-62
2023/03/23 04:09:52;;;;;;;33.03;19.67;;;;;;;;;;6263672;28;20317;-61
2023/03/23 04:12:52;;;;;;;38.30;22.17;;;;;;;;;;6264973;28;20140;-62
2023/03/23 04:15:53;;;;;;;34.85;19.52;;;;;;;;;;6267981;28;20053;-61
2023/03/23 04:18:55;;;;;;;34.83;20.75;;;;;;;;;;6264770;28;20037;-60
2023/03/23 04:21:58;;;;;;;51.72;37.60;;;;;;;;;;6257763;28;20046;-62
2023/03/23 04:25:02;;;;;;;44.70;29.77;;;;;;;;;;6259160;28;20094;-61
2023/03/23 04:28:02;;;;;;;34.58;21.55;;;;;;;;;;6258557;28;20048;-61
2023/03/23 04:31:03;;;;;;;37.78;20.85;;;;;;;;;;6258799;28;20098;-61
2023/03/23 04:34:04;;;;;;;36.53;20.00;;;;;;;;;;6259986;28;20764;-63
2023/03/23 04:37:05;;;;;;;42.85;21.75;;;;;;;;;;6264539;28;20041;-61
2023/03/23 04:40:09;;;;;;;40.05;21.58;;;;;;;;;;6260273;28;20044;-61
2023/03/23 04:43:12;;;;;;;36.80;20.85;;;;;;;;;;6257558;28;20182;-61
2023/03/23 04:46:17;;;;;;;41.30;24.73;;;;;;;;;;6266473;28;20048;-62
2023/03/23 04:49:20;;;;;;;38.63;22.92;;;;;;;;;;6262260;28;20049;-61
2023/03/23 04:52:21;;;;;;;41.22;24.42;;;;;;;;;;6260098;28;20045;-61
2023/03/23 04:55:22;;;;;;;40.65;25.52;;;;;;;;;;6260213;28;20043;-61
2023/03/23 04:58:24;;;;;;;50.60;31.17;;;;;;;;;;6258760;28;20045;-63
2023/03/23 05:01:27;;;;;;;41.70;25.77;;;;;;;;;;6259558;28;20041;-61
2023/03/23 05:04:27;;;;;;;40.97;22.80;;;;;;;;;;6257484;28;20122;-62
2023/03/23 05:07:28;;;;;;;42.95;26.00;;;;;;;;;;6261174;28;20699;-62
2023/03/23 05:10:29;;;;;;;43.13;24.58;;;;;;;;;;6262117;28;20053;-62
2023/03/23 05:13:29;;;;;;;41.35;24.40;;;;;;;;;;6258804;28;20110;-62
2023/03/23 05:16:30;;;;;;;39.42;23.05;;;;;;;;;;6260794;28;20554;-63
2023/03/23 05:19:30;;;;;;;40.50;22.65;;;;;;;;;;6268472;28;20781;-61
2023/03/23 05:22:34;;;;;;;39.90;19.75;;;;;;;;;;6262506;28;20052;-63
2023/03/23 05:25:39;;;;;;;34.95;19.73;;;;;;;;;;6270390;28;20056;-63
2023/03/23 05:28:41;;;;;;;30.80;16.60;;;;;;;;;;6266037;28;20131;-61
2023/03/23 05:31:42;;;;;;;;;;;;;;;;;;6268310;28;20043;-62
2023/03/23 05:34:43;;;;;;;38.67;26.70;;;;;;;;;;6264701;28;19925;-61
2023/03/23 05:37:44;;;;;;;38.22;24.27;;;;;;;;;;6267436;28;20045;-65
2023/03/23 05:40:45;;;;;;;33.73;20.87;;;;;;;;;;6267568;28;20059;-61
2023/03/23 05:43:46;;;;;;;33.30;20.42;;;;;;;;;;6265901;28;20045;-61
2023/03/23 05:46:47;;;;;;;36.15;23.52;;;;;;;;;;6268375;28;20045;-61
2023/03/23 05:49:48;;;;;;;30.40;18.30;;;;;;;;;;6269461;28;20048;-62
2023/03/23 05:52:48;;;;;;;34.50;17.65;;;;;;;;;;6265971;28;20048;-61
2023/03/23 05:55:49;;;;;;;30.83;16.80;;;;;;;;;;6268617;28;20045;-61
2023/03/23 05:58:49;;;;;;;31.00;18.02;;;;;;;;;;6269110;28;20100;-61
2023/03/23 06:01:53;;;;;;;34.75;19.60;;;;;;;;;;6266815;28;20049;-60
2023/03/23 06:04:57;;;;;;;39.00;19.65;;;;;;;;;;6263174;28;20121;-61
2023/03/23 06:07:58;;;;;;;34.40;18.95;;;;;;;;;;6263653;28;20056;-61
2023/03/23 06:10:59;;;;;;;34.37;19.60;;;;;;;;;;6262629;28;20047;-61
2023/03/23 06:14:00;;;;;;;31.63;18.67;;;;;;;;;;6261492;28;20059;-62
2023/03/23 06:17:01;;;;;;;32.28;18.42;;;;;;;;;;6261373;28;20041;-61
2023/03/23 06:20:08;;;;;;;28.83;17.60;;;;;;;;;;6264843;28;20699;-60
2023/03/23 06:23:09;;;;;;;27.15;16.30;;;;;;;;;;6259966;28;20041;-61
2023/03/23 06:26:14;;;;;;;29.33;17.83;;;;;;;;;;6260044;28;20060;-61
2023/03/23 06:29:14;;;;;;;31.83;17.45;;;;;;;;;;6259120;28;20048;-61
2023/03/23 06:32:15;;;;;;;32.35;17.75;;;;;;;;;;6262296;28;20186;-62
2023/03/23 06:35:16;;;;;;;32.22;18.88;;;;;;;;;;6258727;28;20035;-62
2023/03/23 06:38:16;;;;;;;30.08;17.45;;;;;;;;;;6257756;28;20049;-62
2023/03/23 06:41:17;;;;;;;28.95;18.13;;;;;;;;;;6263902;28;20399;-63
2023/03/23 06:44:18;;;;;;;33.20;19.55;;;;;;;;;;6263580;28;20052;-62
2023/03/23 06:47:19;;;;;;;30.35;18.52;;;;;;;;;;6256357;28;20053;-61
2023/03/23 06:50:20;;;;;;;35.80;18.90;;;;;;;;;;6263627;28;20673;-63
2023/03/23 06:53:20;;;;;;;29.05;17.75;;;;;;;;;;6261484;28;20092;-61
2023/03/23 06:56:21;;;;;;;28.27;17.08;;;;;;;;;;6261187;28;20053;-63
2023/03/23 06:59:22;;;;;;;27.92;16.75;;;;;;;;;;6263027;28;20041;-63
2023/03/23 07:02:23;;;;;;;25.90;16.23;;;;;;;;;;6260186;28;20095;-64
2023/03/23 07:05:24;;;;;;;28.15;17.42;;;;;;;;;;6263176;28;20048;-60
2023/03/23 07:08:26;;;;;;;26.33;15.65;;;;;;;;;;6262259;28;20053;-61
2023/03/23 07:11:27;;;;;;;26.42;16.27;;;;;;;;;;6260175;28;20452;-60
2023/03/23 07:14:28;;;;;;;26.30;17.20;;;;;;;;;;6259024;28;20140;-61
2023/03/23 07:17:29;;;;;;;25.25;14.27;;;;;;;;;;6262946;28;20310;-61
2023/03/23 07:20:30;;;;;;;22.88;15.30;;;;;;;;;;6264122;28;20775;-61
2023/03/23 07:23:30;;;;;;;24.15;14.05;;;;;;;;;;6259285;28;20053;-61
2023/03/23 07:26:31;;;;;;;25.40;14.55;;;;;;;;;;6259979;28;20044;-61
2023/03/23 07:29:34;;;;;;;27.27;16.73;;;;;;;;;;6261341;28;20052;-61
2023/03/23 07:32:35;;;;;;;25.88;14.93;;;;;;;;;;6259895;28;20040;-62
2023/03/23 07:35:36;;;;;;;23.40;12.60;;;;;;;;;;6258958;28;20083;-60
2023/03/23 07:38:37;;;;;;;20.58;12.13;;;;;;;;;;6260190;28;20041;-62
2023/03/23 07:41:38;;;;;;;22.58;13.75;;;;;;;;;;6262829;28;20049;-61
2023/03/23 07:44:39;;;;;;;22.13;12.13;;;;;;;;;;6261053;28;20350;-58
2023/03/23 07:47:40;;;;;;;21.85;11.07;;;;;;;;;;6261321;28;20056;-60
2023/03/23 07:50:40;;;;;;;17.93;9.73;;;;;;;;;;6260059;28;20568;-61
2023/03/23 07:53:44;;;;;;;17.35;10.68;;;;;;;;;;6259776;28;20060;-61
2023/03/23 07:56:45;;;;;;;15.40;8.88;;;;;;;;;;6261918;28;20049;-61
2023/03/23 07:59:45;;;;;;;15.38;8.77;;;;;;;;;;6260156;28;20041;-62
2023/03/23 08:02:48;;;;;;;15.73;8.40;;;;;;;;;;6259306;28;20044;-63
2023/03/23 08:05:49;;;;;;;14.48;8.18;;;;;;;;;;6258756;28;20107;-61
2023/03/23 08:08:50;;;;;;;12.98;8.15;;;;;;;;;;6260794;28;20060;-61
2023/03/23 08:11:51;;;;;;;13.13;7.18;;;;;;;;;;6259807;28;20041;-63
2023/03/23 08:14:53;;;;;;;12.98;7.32;;;;;;;;;;6258441;28;20071;-61
2023/03/23 08:17:55;;;;;;;12.20;7.07;;;;;;;;;;6260205;28;20041;-63
2023/03/23 08:20:56;;;;;;;12.00;7.03;;;;;;;;;;6261280;28;20545;-61
2023/03/23 08:23:56;;;;;;;11.80;6.45;;;;;;;;;;6260358;28;20048;-61
2023/03/23 08:26:57;;;;;;;10.95;6.75;;;;;;;;;;6265601;28;20045;-62
2023/03/23 08:29:58;;;;;;;9.82;6.90;;;;;;;;;;6261284;28;20045;-62
2023/03/23 08:33:00;;;;;;;11.60;7.07;;;;;;;;;;6258821;28;20379;-61
2023/03/23 08:36:01;;;;;;;11.88;6.32;;;;;;;;;;6258919;28;20048;-62
2023/03/23 08:39:04;;;;;;;11.95;6.57;;;;;;;;;;6259277;28;20044;-61
2023/03/23 08:42:05;;;;;;;11.98;6.07;;;;;;;;;;6260293;28;20044;-62
2023/03/23 08:45:07;;;;;;;10.50;6.22;;;;;;;;;;6260083;28;20136;-60
2023/03/23 08:48:08;;;;;;;9.95;6.05;;;;;;;;;;6261029;28;20060;-61
2023/03/23 08:51:10;;;;;;;10.15;5.93;;;;;;;;;;6262570;28;20489;-61
2023/03/23 08:54:10;;;;;;;12.55;6.45;;;;;;;;;;6262366;28;20099;-61
2023/03/23 08:57:11;;;;;;;10.75;5.90;;;;;;;;;;6264432;28;20041;-61
2023/03/23 09:00:17;;;;;;;11.60;5.80;;;;;;;;;;6265763;28;20047;-61
2023/03/23 09:03:18;;;;;;;12.32;6.82;;;;;;;;;;6266410;28;20488;-61
2023/03/23 09:06:18;;;;;;;12.82;6.28;;;;;;;;;;6264084;28;20053;-61
2023/03/23 09:09:19;;;;;;;7.88;4.53;;;;;;;;;;6262919;28;20127;-61
2023/03/23 09:12:19;;;;;;;8.43;5.30;;;;;;;;;;6263980;28;20074;-61
2023/03/23 09:15:21;;;;;;;9.48;4.55;;;;;;;;;;6263921;28;20156;-60
2023/03/23 09:18:21;;;;;;;9.63;4.65;;;;;;;;;;6263801;28;20511;-61
2023/03/23 09:21:27;;;;;;;9.10;5.15;;;;;;;;;;6263207;28;20053;-61
2023/03/23 09:24:27;;;;;;;10.18;4.90;;;;;;;;;;6263484;28;20048;-60
2023/03/23 09:27:28;;;;;;;8.90;4.75;;;;;;;;;;6262994;28;21909;-60
2023/03/23 09:30:35;;;;;;;9.70;5.10;;;;;;;;;;6263758;28;20048;-61
2023/03/23 09:33:36;;;;;;;8.85;4.80;;;;;;;;;;6261828;28;20093;-61
2023/03/23 09:36:38;;;;;;;10.93;5.22;;;;;;;;;;6263736;28;20071;-61
2023/03/23 09:39:39;;;;;;;9.23;5.13;;;;;;;;;;6263054;28;20045;-61
2023/03/23 09:42:51;;;;;;;8.23;4.50;;;;;;;;;;6265424;28;20491;-61
2023/03/23 09:46:35;;;;;;;10.38;5.45;;;;;;;;;;6267784;28;20044;-60
2023/03/23 09:49:43;;;;;;;9.55;4.88;;;;;;;;;;6261894;28;20060;-61
2023/03/23 09:52:44;;;;;;;7.78;4.40;;;;;;;;;;6265130;28;20045;-63
2023/03/23 09:55:45;;;;;;;10.77;4.80;;;;;;;;;;6264948;28;20052;-61
2023/03/23 09:58:53;;;;;;;;;;;;;;;;;;6263733;28;20041;-62
2023/03/23 10:02:02;;;;;;;9.60;5.07;;;;;;;;;;6265895;28;19925;-61
2023/03/23 10:05:18;;;;;;;9.60;5.40;;;;;;;;;;6264217;28;20053;-60
2023/03/23 10:08:27;;;;;;;9.20;5.07;;;;;;;;;;6262786;28;20049;-61
2023/03/23 10:11:33;;;;;;;10.13;5.38;;;;;;;;;;6262166;28;20488;-61
2023/03/23 10:14:43;;;;;;;10.75;5.47;;;;;;;;;;6263085;28;20139;-61
2023/03/23 10:18:03;;;;;;;10.32;5.03;;;;;;;;;;6263024;28;20086;-61
2023/03/23 10:21:08;;;;;;;8.85;4.57;;;;;;;;;;6261341;28;20496;-61
2023/03/23 10:24:10;;;;;;;8.52;4.90;;;;;;;;;;6263595;28;20048;-61
2023/03/23 10:27:22;;;;;;;12.45;5.13;;;;;;;;;;6263059;28;20508;-61
2023/03/23 10:30:36;;;;;;;10.02;4.78;;;;;;;;;;6262807;28;20508;-61
2023/03/23 10:33:42;;;;;;;10.32;4.47;;;;;;;;;;6261147;28;20045;-61
2023/03/23 10:36:59;;;;;;;10.32;4.45;;;;;;;;;;6262792;28;20051;-60
2023/03/23 10:40:03;;;;;;;11.05;3.85;;;;;;;;;;6262436;28;20048;-61
2023/03/23 10:43:04;;;;;;;8.05;3.95;;;;;;;;;;6264701;28;20080;-61
2023/03/23 10:46:33;;;;;;;9.57;4.03;;;;;;;;;;6262869;28;20059;-61
2023/03/23 10:49:34;;;;;;;7.65;4.07;;;;;;;;;;6258026;28;20059;-61
2023/03/23 10:52:40;;;;;;;9.48;3.88;;;;;;;;;;6259634;28;20717;-61
2023/03/23 10:55:44;;;;;;;8.90;3.33;;;;;;;;;;6258880;28;20097;-61
2023/03/23 10:58:45;;;;;;;7.57;3.30;;;;;;;;;;6259728;28;21593;-61
2023/03/23 11:01:50;;;;;;;7.45;3.45;;;;;;;;;;6262022;28;20063;-61
2023/03/23 11:05:01;;;;;;;9.73;3.42;;;;;;;;;;6260257;28;20484;-61
2023/03/23 11:08:02;;;;;;;9.33;3.50;;;;;;;;;;6257908;28;20099;-61
2023/03/23 11:11:09;;;;;;;7.53;3.75;;;;;;;;;;6261234;28;20041;-61
2023/03/23 11:14:18;;;;;;;7.75;3.90;;;;;;;;;;6258742;28;20064;-61
2023/03/23 11:17:27;;;;;;;7.13;3.50;;;;;;;;;;6260657;28;20052;-61
2023/03/23 11:20:30;;;;;;;8.65;3.95;;;;;;;;;;6260583;28;20128;-62
2023/03/23 11:23:39;;;;;;;8.82;3.47;;;;;;;;;;6258103;28;20388;-61
2023/03/23 11:26:44;;;;;;;6.90;3.47;;;;;;;;;;6260533;28;20747;-60
2023/03/23 11:29:56;;;;;;;9.77;3.40;;;;;;;;;;6258770;28;20125;-62
2023/03/23 11:33:01;;;;;;;7.70;3.80;;;;;;;;;;6258804;28;20041;-60
2023/03/23 11:36:02;;;;;;;8.18;3.90;;;;;;;;;;6260287;28;20511;-61
2023/03/23 11:39:22;;;;;;;11.93;4.03;;;;;;;;;;6260300;28;20041;-61
2023/03/23 11:42:31;;;;;;;9.18;4.00;;;;;;;;;;6259655;28;20046;-61
2023/03/23 11:45:45;;;;;;;9.10;3.72;;;;;;;;;;6260899;28;20048;-61
2023/03/23 11:48:56;;;;;;;8.35;3.90;;;;;;;;;;6260998;28;20049;-61
2023/03/23 11:52:28;;;;;;;8.93;3.78;;;;;;;;;;6258350;28;20087;-60
2023/03/23 11:55:36;;;;;;;6.43;3.35;;;;;;;;;;6259407;28;20049;-62
2023/03/23 11:58:37;;;;;;;8.05;3.70;;;;;;;;;;6261229;28;20049;-61
2023/03/23 12:01:41;;;;;;;7.88;3.58;;;;;;;;;;6258677;28;22132;-62
2023/03/23 12:05:20;;;;;;;6.72;3.25;;;;;;;;;;6259019;28;20141;-61
2023/03/23 12:08:29;;;;;;;8.98;3.58;;;;;;;;;;6257445;28;20045;-61
2023/03/23 12:11:53;;;;;;;7.85;3.20;;;;;;;;;;6258612;28;20045;-61
2023/03/23 12:15:00;;;;;;;7.15;3.10;;;;;;;;;;6261729;28;20080;-61
2023/03/23 12:18:20;;;;;;;6.57;3.35;;;;;;;;;;6257918;28;20051;-61
2023/03/23 12:21:38;;;;;;;7.43;3.10;;;;;;;;;;6257974;28;20541;-61
2023/03/23 12:24:54;;;;;;;6.90;3.28;;;;;;;;;;6259531;28;20049;-60
2023/03/23 12:28:53;;;;;;;6.85;3.67;;;;;;;;;;6261216;28;20158;-62
2023/03/23 12:32:32;;;;;;;8.23;3.60;;;;;;;;;;6221417;28;20047;-61
2023/03/23 12:35:38;;;;;;;9.95;6.88;;;;;;;;;;6258524;28;20393;-61
2023/03/23 12:39:09;;;;;;;8.73;5.15;;;;;;;;;;6257727;28;20041;-61
2023/03/23 12:42:25;;;;;;;11.65;7.25;;;;;;;;;;6259288;28;20373;-61
2023/03/23 12:45:55;;;;;;;7.70;4.25;;;;;;;;;;6259179;28;20041;-61
2023/03/23 12:49:19;;;;;;;7.07;3.53;;;;;;;;;;6260470;28;20056;-61
2023/03/23 12:52:26;;;;;;;6.93;3.53;;;;;;;;;;6245531;28;20064;-61
2023/03/23 12:55:41;;;;;;;12.05;3.40;;;;;;;;;;6250515;28;20139;-62
2023/03/23 12:58:47;;;;;;;6.32;3.38;;;;;;;;;;6251513;28;20045;-60
2023/03/23 13:01:55;;;;;;;7.50;3.35;;;;;;;;;;6249374;28;20061;-61
2023/03/23 13:05:06;;;;;;;6.03;3.30;;;;;;;;;;6247556;28;20067;-60
2023/03/23 13:08:20;;;;;;;6.38;3.30;;;;;;;;;;6249821;28;20060;-62
2023/03/23 13:11:35;;;;;;;8.65;4.10;;;;;;;;;;6249535;28;20049;-61
2023/03/23 13:15:00;;;;;;;6.45;4.00;;;;;;;;;;6246949;28;20685;-61
2023/03/23 13:18:25;;;;;;;9.55;6.22;;;;;;;;;;6248166;28;20463;-60
2023/03/23 13:21:51;;;;;;;8.50;3.33;;;;;;;;;;6249985;28;20139;-61
2023/03/23 13:24:57;;;;;;;8.40;4.32;;;;;;;;;;6249323;28;20529;-60
2023/03/23 13:28:00;;;;;;;6.53;3.80;;;;;;;;;;6248144;28;20055;-59
2023/03/23 13:31:16;;;;;;;7.13;3.47;;;;;;;;;;6250755;28;20498;-60
2023/03/23 13:34:26;;;;;;;9.05;3.50;;;;;;;;;;6254016;28;20053;-61
2023/03/23 13:37:27;;;;;;;7.03;3.33;;;;;;;;;;6256766;28;20055;-61
2023/03/23 13:40:31;;;;;;;6.27;3.40;;;;;;;;;;6260713;28;20156;-62
2023/03/23 13:43:34;;;;;;;7.88;5.05;;;;;;;;;;6261216;28;20051;-61
2023/03/23 13:46:35;;;;;;;19.10;13.13;;;;;;;;;;6260220;28;20049;-63
2023/03/23 13:49:50;;;;;;;8.87;4.60;;;;;;;;;;6262385;28;20049;-61
2023/03/23 13:52:54;;;;;;;9.25;5.95;;;;;;;;;;6259871;28;20183;-61
2023/03/23 13:56:32;;;;;;;5.68;3.55;;;;;;;;;;6262035;28;20059;-62
2023/03/23 13:59:45;;;;;;;8.60;3.60;;;;;;;;;;6261619;28;20620;-61
2023/03/23 14:02:47;;;;;;;8.05;3.33;;;;;;;;;;6260860;28;20082;-61
2023/03/23 14:06:02;;;;;;;5.85;3.35;;;;;;;;;;6257521;28;20037;-61
2023/03/23 14:09:08;;;;;;;6.15;3.38;;;;;;;;;;6253249;28;20065;-61
2023/03/23 14:12:22;;;;;;;7.25;3.20;;;;;;;;;;6253171;28;22009;-61
2023/03/23 14:15:29;;;;;;;7.10;3.30;;;;;;;;;;6252571;28;20053;-61
2023/03/23 14:18:38;;;;;;;5.13;3.35;;;;;;;;;;6248897;28;20144;-61
2023/03/23 14:21:41;;;;;;;6.47;3.28;;;;;;;;;;6251967;28;20059;-61
2023/03/23 14:24:42;;;;;;;6.13;3.38;;;;;;;;;;6252936;28;20666;-61
2023/03/23 14:27:45;;;;;;;5.15;3.15;;;;;;;;;;6250396;28;20120;-61
2023/03/23 14:30:45;;;;;;;7.20;3.30;;;;;;;;;;6253725;28;21284;-61
2023/03/23 14:33:48;;;;;;;35.72;15.10;;;;;;;;;;6254524;28;20140;-61
2023/03/23 14:36:48;;;;;;;;;;;;;;;;;;6250770;28;20435;-61
2023/03/23 14:39:54;;;;;;;10.63;6.72;;;;;;;;;;6253253;28;19989;-61
2023/03/23 14:42:56;;;;;;;12.60;7.22;;;;;;;;;;6254446;28;20052;-61
2023/03/23 14:45:59;;;;;;;9.40;6.45;;;;;;;;;;6253471;28;20055;-61
2023/03/23 14:49:01;;;;;;;7.30;4.70;;;;;;;;;;6249061;28;20421;-61
2023/03/23 14:52:12;;;;;;;7.93;4.75;;;;;;;;;;6253283;28;20049;-61
2023/03/23 14:55:21;;;;;;;6.50;3.90;;;;;;;;;;6253383;28;20049;-61
2023/03/23 14:58:23;;;;;;;8.57;3.78;;;;;;;;;;6251174;28;20049;-61
2023/03/23 15:01:28;;;;;;;;;;;;;;;;;;6254047;28;20127;-61
2023/03/23 15:04:29;;;;;;;6.30;3.08;;;;;;;;;;6251584;28;19928;-61
2023/03/23 15:07:34;;;;;;;6.70;3.47;;;;;;;;;;6249646;28;20532;-62
2023/03/23 15:10:35;;;;;;;8.02;3.50;;;;;;;;;;6250489;28;20060;-61
2023/03/23 15:13:36;;;;;;;6.75;3.42;;;;;;;;;;6253920;28;20788;-62
2023/03/23 15:16:41;;;;;;;5.95;3.17;;;;;;;;;;6251801;28;20045;-61
2023/03/23 15:19:43;;;;;;;6.90;3.30;;;;;;;;;;6250627;28;20057;-61
2023/03/23 15:22:48;;;;;;;5.93;3.55;;;;;;;;;;6253872;28;20574;-61
2023/03/23 15:25:51;;;;;;;7.45;3.70;;;;;;;;;;6253652;28;20683;-61
2023/03/23 15:29:07;;;;;;;11.10;5.50;;;;;;;;;;6250664;28;20079;-62
2023/03/23 15:32:10;;;;;;;8.93;3.97;;;;;;;;;;6250027;28;20428;-60
2023/03/23 15:35:17;;;;;;;10.13;5.57;;;;;;;;;;6253882;28;20057;-61
2023/03/23 15:38:29;;;;;;;12.35;7.05;;;;;;;;;;6250710;28;20523;-61
2023/03/23 15:41:34;;;;;;;10.20;6.38;;;;;;;;;;6249530;28;20463;-62
2023/03/23 15:44:35;;;;;;;9.02;4.90;;;;;;;;;;6252675;28;20048;-61
2023/03/23 15:47:41;;;;;;;11.10;4.18;;;;;;;;;;6253038;28;20092;-61
2023/03/23 15:50:45;;;;;;;7.00;3.60;;;;;;;;;;6256174;28;20099;-61
2023/03/23 15:53:46;;;;;;;8.80;3.60;;;;;;;;;;6257940;28;20059;-61
2023/03/23 15:56:46;;;;;;;6.60;3.72;;;;;;;;;;6257715;28;20044;-61
2023/03/23 15:59:47;;;;;;;10.13;3.58;;;;;;;;;;6257770;28;20057;-61
2023/03/23 16:02:54;;;;;;;6.70;3.28;;;;;;;;;;6257288;28;20477;-60
2023/03/23 16:05:58;;;;;;;7.75;3.65;;;;;;;;;;6258696;28;20041;-61
2023/03/23 16:08:59;;;;;;;6.85;3.17;;;;;;;;;;6254697;28;20126;-61
2023/03/23 16:12:00;;;;;;;5.90;2.90;;;;;;;;;;6255703;28;20055;-61
2023/03/23 16:15:00;;;;;;;7.13;3.38;;;;;;;;;;6257679;28;20404;-62
2023/03/23 16:18:01;;;;;;;5.93;3.05;;;;;;;;;;6256881;28;20116;-61
2023/03/23 16:21:02;;;;;;;6.45;3.30;;;;;;;;;;6256495;28;20055;-61
2023/03/23 16:24:03;;;;;;;5.90;2.85;;;;;;;;;;6255693;28;20049;-62
2023/03/23 16:27:04;;;;;;;9.65;3.53;;;;;;;;;;6257946;28;20056;-61
2023/03/23 16:30:18;;;;;;;8.07;3.60;;;;;;;;;;6258657;28;20487;-62
2023/03/23 16:33:18;;;;;;;7.05;3.78;;;;;;;;;;6257053;28;20057;-64
2023/03/23 16:36:19;;;;;;;10.73;4.10;;;;;;;;;;6255563;28;20076;-61
2023/03/23 16:39:20;;;;;;;6.70;4.00;;;;;;;;;;6255271;28;20412;-66
2023/03/23 16:42:20;;;;;;;7.63;4.25;;;;;;;;;;6257129;28;20049;-63
2023/03/23 16:45:22;;;;;;;12.70;4.70;;;;;;;;;;6257072;28;20045;-60
2023/03/23 16:48:23;;;;;;;7.68;4.20;;;;;;;;;;6255287;28;20077;-63
2023/03/23 16:51:24;;;;;;;7.85;4.35;;;;;;;;;;6255301;28;20098;-62
2023/03/23 16:54:25;;;;;;;7.53;4.15;;;;;;;;;;6255319;28;20060;-62
2023/03/23 16:57:26;;;;;;;9.10;4.20;;;;;;;;;;6249086;28;20724;-61
2023/03/23 17:00:26;;;;;;;8.65;4.50;;;;;;;;;;6255072;28;20457;-60
2023/03/23 17:03:27;;;;;;;10.88;4.75;;;;;;;;;;6254330;28;20049;-60
2023/03/23 17:06:28;;;;;;;13.60;6.82;;;;;;;;;;6250797;28;20053;-61
2023/03/23 17:09:28;;;;;;;11.85;5.18;;;;;;;;;;6249334;28;20481;-60
2023/03/23 17:12:29;;;;;;;10.50;5.40;;;;;;;;;;6250546;28;20056;-61
2023/03/23 17:15:29;;;;;;;10.93;5.65;;;;;;;;;;6250151;28;20045;-60
2023/03/23 17:18:30;;;;;;;12.85;6.90;;;;;;;;;;6251778;28;20211;-60
2023/03/23 17:21:31;;;;;;;11.55;7.00;;;;;;;;;;6254819;28;20056;-61
2023/03/23 17:24:31;;;;;;;13.90;7.00;;;;;;;;;;6252622;28;20567;-60
2023/03/23 17:27:33;;;;;;;13.38;7.20;;;;;;;;;;6251129;28;20047;-60
2023/03/23 17:30:34;;;;;;;13.45;6.60;;;;;;;;;;6254179;28;20051;-60
2023/03/23 17:33:34;;;;;;;14.57;6.32;;;;;;;;;;6251634;28;20532;-61
2023/03/23 17:36:35;;;;;;;17.33;8.80;;;;;;;;;;6250240;28;20084;-60
2023/03/23 17:39:36;;;;;;;13.05;7.05;;;;;;;;;;6252690;28;21230;-60
2023/03/23 17:42:37;;;;;;;10.53;7.30;;;;;;;;;;6250961;28;20504;-60
2023/03/23 17:45:38;;;;;;;12.90;6.72;;;;;;;;;;6253075;28;20056;-61
2023/03/23 17:48:39;;;;;;;13.32;7.03;;;;;;;;;;6250023;28;20050;-60
2023/03/23 17:51:39;;;;;;;17.02;6.80;;;;;;;;;;6251346;28;20049;-60
2023/03/23 17:54:40;;;;;;;13.30;7.97;;;;;;;;;;6254287;28;20696;-60
2023/03/23 17:57:40;;;;;;;16.98;9.50;;;;;;;;;;6254989;28;20049;-61
2023/03/23 18:00:41;;;;;;;17.35;9.75;;;;;;;;;;6258806;28;20195;-61
2023/03/23 18:03:42;;;;;;;13.63;7.97;;;;;;;;;;6258010;28;20097;-60
2023/03/23 18:06:44;;;;;;;15.43;8.73;;;;;;;;;;6257329;28;20041;-60
2023/03/23 18:09:44;;;;;;;13.73;7.90;;;;;;;;;;6259487;28;20065;-60
2023/03/23 18:12:50;;;;;;;14.35;7.90;;;;;;;;;;6257537;28;20875;-59